createdAt,value
2019-05-05T00:01:14.710Z,14.54
2019-05-05T00:04:04.498Z,11.90
2019-05-05T00:06:34.270Z,7.10
2019-05-05T00:09:05.286Z,8.77
2019-05-05T00:11:47.705Z,8.68
2019-05-05T00:14:30.184Z,10.60
2019-05-05T00:17:05.229Z,14.97
2019-05-05T00:19:35.843Z,14.70
2019-05-05T00:22:06.362Z,11.50
2019-05-05T00:24:36.915Z,10.72
2019-05-05T00:27:06.271Z,15.00
2019-05-05T00:29:35.123Z,13.27
2019-05-05T00:32:06.136Z,6.33
2019-05-05T00:34:35.059Z,18.87
2019-05-05T00:37:06.253Z,13.15
2019-05-05T00:39:34.853Z,16.95
2019-05-05T00:42:04.764Z,8.30
2019-05-05T00:44:35.381Z,8.55
2019-05-05T00:47:21.939Z,15.73
2019-05-05T00:49:52.035Z,4.55
2019-05-05T00:52:20.825Z,11.28
2019-05-05T00:54:49.624Z,10.70
2019-05-05T00:57:18.425Z,15.32
2019-05-05T00:59:47.524Z,11.35
2019-05-05T01:02:30.022Z,11.87
2019-05-05T01:05:10.552Z,11.97
2019-05-05T01:07:39.375Z,13.80
2019-05-05T01:10:08.133Z,17.80
2019-05-05T01:12:36.624Z,13.32
2019-05-05T01:15:06.957Z,14.28
2019-05-05T01:17:37.233Z,10.20
2019-05-05T01:20:07.565Z,6.47
2019-05-05T01:22:36.062Z,16.87
2019-05-05T01:25:06.473Z,18.40
2019-05-05T01:27:35.512Z,13.63
2019-05-05T01:30:07.360Z,21.64
2019-05-05T01:32:47.886Z,9.25
2019-05-05T01:35:16.668Z,14.75
2019-05-05T01:37:47.207Z,12.07
2019-05-05T01:40:35.404Z,16.67
2019-05-05T01:43:05.941Z,11.00
2019-05-05T01:45:35.487Z,16.23
2019-05-05T01:48:05.368Z,10.67
2019-05-05T01:50:36.073Z,18.62
2019-05-05T01:53:06.716Z,17.17
2019-05-05T01:55:37.001Z,18.70
2019-05-05T01:58:06.384Z,15.70
2019-05-05T02:00:35.383Z,13.43
2019-05-05T02:03:04.517Z,18.35
2019-05-05T02:05:34.977Z,14.63
2019-05-05T02:08:05.504Z,22.43
2019-05-05T02:10:34.987Z,12.47
2019-05-05T02:13:04.652Z,16.37
2019-05-05T02:15:34.460Z,12.67
2019-05-05T02:18:04.501Z,13.50
2019-05-05T02:20:35.861Z,10.35
2019-05-05T02:23:05.687Z,10.63
2019-05-05T02:25:36.402Z,12.23
2019-05-05T02:28:06.511Z,14.55
2019-05-05T02:30:41.537Z,14.18
2019-05-05T02:33:15.458Z,15.30
2019-05-05T02:35:45.618Z,12.40
2019-05-05T02:38:15.550Z,12.50
2019-05-05T02:40:45.259Z,13.90
2019-05-05T02:43:15.060Z,14.57
2019-05-05T02:45:46.992Z,12.23
2019-05-05T02:48:16.235Z,15.97
2019-05-05T02:50:55.937Z,16.77
2019-05-05T02:53:21.967Z,15.80
2019-05-05T02:55:51.055Z,11.60
2019-05-05T02:58:21.587Z,13.72
2019-05-05T03:00:54.770Z,12.80
2019-05-05T03:03:23.939Z,14.67
2019-05-05T03:05:53.910Z,18.90
2019-05-05T03:08:24.232Z,19.83
2019-05-05T03:10:53.639Z,13.83
2019-05-05T03:13:24.346Z,15.32
2019-05-05T03:16:00.451Z,16.20
2019-05-05T03:18:29.336Z,16.37
2019-05-05T03:21:04.423Z,12.98
2019-05-05T03:23:28.599Z,17.33
2019-05-05T03:25:57.400Z,18.67
2019-05-05T03:28:27.890Z,12.70
2019-05-05T03:30:56.704Z,17.67
2019-05-05T03:33:26.465Z,15.97
2019-05-05T03:35:55.256Z,13.58
2019-05-05T03:38:24.779Z,16.43
2019-05-05T03:40:55.344Z,10.67
2019-05-05T03:43:25.583Z,15.17
2019-05-05T03:45:56.406Z,17.15
2019-05-05T03:48:25.436Z,18.95
2019-05-05T03:50:54.185Z,18.57
2019-05-05T03:53:24.597Z,18.50
2019-05-05T03:55:54.575Z,10.00
2019-05-05T03:58:24.160Z,14.63
2019-05-05T04:01:00.643Z,19.17
2019-05-05T04:03:30.930Z,20.85
2019-05-05T04:06:01.111Z,10.85
2019-05-05T04:08:29.803Z,15.58
2019-05-05T04:10:58.393Z,19.02
2019-05-05T04:13:28.328Z,18.73
2019-05-05T04:16:11.146Z,10.70
2019-05-05T04:18:50.748Z,15.68
2019-05-05T04:21:30.411Z,13.85
2019-05-05T04:23:50.114Z,17.48
2019-05-05T04:26:18.629Z,18.87
2019-05-05T04:28:47.123Z,23.22
2019-05-05T04:31:15.613Z,15.23
2019-05-05T04:33:45.721Z,16.87
2019-05-05T04:36:14.541Z,16.83
2019-05-05T04:38:43.967Z,16.80
2019-05-05T04:41:14.006Z,19.23
2019-05-05T04:43:44.233Z,17.77
2019-05-05T04:46:14.090Z,18.27
2019-05-05T04:49:03.597Z,15.03
2019-05-05T04:51:46.999Z,24.15
2019-05-05T04:54:26.112Z,18.10
2019-05-05T04:57:01.478Z,16.60
2019-05-05T05:02:00.514Z,14.65
2019-05-05T05:04:44.087Z,21.30
2019-05-05T05:07:13.645Z,19.10
2019-05-05T05:09:43.446Z,19.10
2019-05-05T05:12:14.499Z,23.67
2019-05-05T05:14:44.086Z,17.37
2019-05-05T05:17:14.981Z,16.20
2019-05-05T05:19:43.879Z,20.20
2019-05-05T05:22:13.668Z,16.00
2019-05-05T05:24:45.743Z,18.03
2019-05-05T05:27:14.257Z,13.97
2019-05-05T05:29:43.815Z,17.70
2019-05-05T05:32:12.527Z,23.93
2019-05-05T05:34:43.768Z,15.77
2019-05-05T05:37:13.782Z,16.60
2019-05-05T05:39:47.696Z,12.15
2019-05-05T05:42:16.612Z,16.50
2019-05-05T05:44:49.556Z,18.17
2019-05-05T05:47:36.281Z,18.80
2019-05-05T05:50:08.217Z,14.75
2019-05-05T05:52:38.551Z,20.43
2019-05-05T05:55:07.340Z,13.53
2019-05-05T05:57:37.360Z,22.87
2019-05-05T06:00:11.083Z,19.37
2019-05-05T06:02:44.073Z,14.78
2019-05-05T06:05:14.568Z,18.00
2019-05-05T06:07:44.309Z,15.32
2019-05-05T06:10:23.915Z,14.83
2019-05-05T06:12:45.057Z,24.23
2019-05-05T06:15:14.285Z,17.55
2019-05-05T06:17:43.504Z,19.65
2019-05-05T06:20:15.387Z,21.07
2019-05-05T06:22:44.661Z,15.25
2019-05-05T06:25:16.533Z,17.63
2019-05-05T06:27:45.386Z,19.67
2019-05-05T06:30:14.451Z,20.93
2019-05-05T06:32:45.574Z,16.70
2019-05-05T06:35:14.716Z,16.90
2019-05-05T06:37:55.718Z,19.10
2019-05-05T06:40:44.275Z,20.27
2019-05-05T06:43:25.386Z,21.73
2019-05-05T06:46:04.406Z,12.65
2019-05-05T06:48:34.385Z,14.15
2019-05-05T06:51:03.943Z,20.35
2019-05-05T06:53:34.210Z,17.43
2019-05-05T06:56:04.091Z,17.35
2019-05-05T06:58:34.705Z,17.87
2019-05-05T07:01:03.622Z,8.60
2019-05-05T07:03:33.681Z,19.67
2019-05-05T07:06:04.367Z,15.30
2019-05-05T07:08:34.674Z,16.42
2019-05-05T07:11:04.065Z,15.03
2019-05-05T07:13:33.935Z,16.93
2019-05-05T07:16:04.894Z,13.65
2019-05-05T07:18:34.117Z,14.83
2019-05-05T07:21:03.653Z,20.10
2019-05-05T07:23:35.001Z,13.05
2019-05-05T07:26:05.011Z,12.93
2019-05-05T07:28:34.210Z,15.30
2019-05-05T07:31:05.910Z,22.77
2019-05-05T07:33:36.683Z,14.20
2019-05-05T07:36:25.278Z,15.46
2019-05-05T07:38:54.769Z,22.95
2019-05-05T07:41:23.576Z,18.17
2019-05-05T07:43:54.168Z,18.35
2019-05-05T07:46:24.119Z,15.63
2019-05-05T07:48:54.460Z,13.08
2019-05-05T07:51:24.238Z,9.40
2019-05-05T07:53:54.654Z,16.55
2019-05-05T07:56:23.801Z,15.87
2019-05-05T07:58:54.313Z,14.45
2019-05-05T08:01:24.486Z,8.27
2019-05-05T08:03:53.861Z,14.57
2019-05-05T08:06:23.682Z,13.98
2019-05-05T08:08:54.456Z,14.10
2019-05-05T08:11:23.850Z,17.13
2019-05-05T08:13:54.590Z,17.92
2019-05-05T08:16:27.394Z,17.70
2019-05-05T08:19:15.925Z,16.17
2019-05-05T08:21:44.825Z,29.87
2019-05-05T08:24:18.208Z,16.17
2019-05-05T08:27:00.201Z,4.78
2019-05-05T08:29:30.928Z,13.38
2019-05-05T08:32:04.444Z,17.63
2019-05-05T08:34:33.974Z,15.30
2019-05-05T08:37:04.532Z,13.08
2019-05-05T08:39:34.465Z,14.17
2019-05-05T08:42:04.324Z,15.95
2019-05-05T08:44:34.726Z,11.35
2019-05-05T08:47:04.462Z,21.57
2019-05-05T08:49:34.702Z,19.60
2019-05-05T08:52:04.135Z,20.02
2019-05-05T08:54:34.417Z,13.68
2019-05-05T08:57:04.207Z,18.95
2019-05-05T08:59:33.754Z,18.67
2019-05-05T09:02:04.353Z,16.27
2019-05-05T09:04:34.027Z,12.40
2019-05-05T09:07:05.059Z,19.40
2019-05-05T09:09:34.448Z,11.83
2019-05-05T09:12:04.578Z,13.83
2019-05-05T09:14:36.327Z,15.25
2019-05-05T09:17:06.802Z,13.88
2019-05-05T09:19:37.020Z,15.58
2019-05-05T09:22:08.702Z,17.92
2019-05-05T09:24:37.937Z,16.00
2019-05-05T09:27:25.531Z,14.00
2019-05-05T09:29:54.664Z,16.37
2019-05-05T09:32:24.291Z,16.10
2019-05-05T09:34:54.086Z,6.30
2019-05-05T09:37:24.655Z,16.53
2019-05-05T09:39:54.129Z,12.00
2019-05-05T09:42:23.929Z,16.37
2019-05-05T09:44:54.168Z,20.10
2019-05-05T09:47:24.142Z,8.57
2019-05-05T09:49:54.970Z,5.78
2019-05-05T09:52:24.474Z,12.13
2019-05-05T09:54:54.419Z,12.55
2019-05-05T09:57:23.833Z,6.42
2019-05-05T09:59:54.284Z,7.45
2019-05-05T10:02:24.011Z,16.10
2019-05-05T10:04:54.683Z,9.80
2019-05-05T10:07:24.253Z,18.43
2019-05-05T10:09:54.287Z,14.87
2019-05-05T10:12:23.098Z,9.47
2019-05-05T10:14:51.581Z,14.53
2019-05-05T10:17:20.226Z,16.60
2019-05-05T10:19:49.132Z,21.80
2019-05-05T10:22:17.719Z,11.07
2019-05-05T10:24:56.815Z,17.05
2019-05-05T10:27:24.245Z,16.00
2019-05-05T10:29:54.732Z,15.98
2019-05-05T10:32:24.506Z,21.80
2019-05-05T10:35:01.101Z,19.30
2019-05-05T10:37:30.321Z,9.43
2019-05-05T10:39:59.192Z,15.78
2019-05-05T10:42:46.129Z,17.15
2019-05-05T10:47:44.043Z,11.38
2019-05-05T10:50:13.886Z,17.85
2019-05-05T10:52:44.266Z,14.55
2019-05-05T10:55:14.546Z,12.68
2019-05-05T10:57:43.634Z,16.50
2019-05-05T11:00:19.848Z,17.10
2019-05-05T11:02:48.913Z,12.82
2019-05-05T11:05:17.884Z,15.30
2019-05-05T11:07:46.998Z,16.47
2019-05-05T11:10:17.032Z,13.33
2019-05-05T11:12:46.005Z,10.85
2019-05-05T11:15:16.000Z,22.48
2019-05-05T11:17:44.785Z,20.63
2019-05-05T11:20:14.311Z,19.03
2019-05-05T11:22:44.611Z,17.37
2019-05-05T11:25:13.894Z,12.53
2019-05-05T11:27:44.067Z,12.80
2019-05-05T11:30:17.704Z,18.73
2019-05-05T11:33:04.092Z,16.62
2019-05-05T11:35:51.156Z,14.15
2019-05-05T11:38:20.856Z,17.60
2019-05-05T11:40:49.851Z,12.73
2019-05-05T11:43:18.958Z,21.33
2019-05-05T11:45:47.541Z,18.55
2019-05-05T11:48:16.513Z,18.75
2019-05-05T11:50:45.101Z,16.75
2019-05-05T11:53:14.543Z,22.60
2019-05-05T11:55:44.253Z,25.03
2019-05-05T11:58:14.295Z,12.50
2019-05-05T12:00:43.879Z,14.35
2019-05-05T12:03:14.506Z,15.93
2019-05-05T12:05:44.245Z,16.00
2019-05-05T12:08:14.688Z,18.57
2019-05-05T12:10:46.243Z,19.03
2019-05-05T12:13:15.606Z,15.28
2019-05-05T12:15:48.271Z,16.87
2019-05-05T12:18:17.623Z,15.45
2019-05-05T12:20:46.104Z,19.57
2019-05-05T12:23:14.947Z,16.37
2019-05-05T12:25:52.887Z,14.43
2019-05-05T12:28:25.953Z,20.02
2019-05-05T12:31:06.120Z,9.75
2019-05-05T12:33:35.127Z,19.02
2019-05-05T12:36:06.879Z,17.43
2019-05-05T12:38:37.929Z,12.43
2019-05-05T12:41:07.489Z,11.78
2019-05-05T12:43:38.654Z,12.33
2019-05-05T12:46:09.116Z,12.98
2019-05-05T12:48:43.806Z,16.80
2019-05-05T12:51:14.579Z,10.32
2019-05-05T12:53:46.327Z,9.00
2019-05-05T12:56:24.235Z,13.95
2019-05-05T12:58:54.552Z,13.05
2019-05-05T13:01:27.728Z,13.40
2019-05-05T13:03:58.351Z,12.07
2019-05-05T13:06:31.648Z,19.17
2019-05-05T13:09:00.156Z,12.50
2019-05-05T13:11:34.225Z,12.13
2019-05-05T13:14:05.094Z,6.33
2019-05-05T13:16:34.269Z,12.20
2019-05-05T13:19:04.691Z,15.30
2019-05-05T13:21:51.398Z,15.40
2019-05-05T13:24:34.215Z,13.70
2019-05-05T13:27:19.072Z,21.93
2019-05-05T13:29:44.264Z,13.53
2019-05-05T13:32:14.819Z,12.90
2019-05-05T13:34:43.936Z,13.13
2019-05-05T13:37:14.118Z,7.83
2019-05-05T13:39:44.587Z,7.90
2019-05-05T13:42:16.033Z,10.78
2019-05-05T13:44:51.130Z,16.30
2019-05-05T13:47:19.723Z,9.87
2019-05-05T13:49:51.160Z,12.68
2019-05-05T13:52:20.164Z,13.10
2019-05-05T13:54:48.952Z,15.83
2019-05-05T13:57:18.053Z,11.83
2019-05-05T13:59:46.548Z,17.00
2019-05-05T14:02:15.052Z,11.67
2019-05-05T14:04:44.609Z,10.70
2019-05-05T14:07:13.342Z,12.30
2019-05-05T14:09:44.027Z,10.78
2019-05-05T14:12:14.977Z,7.67
2019-05-05T14:14:44.076Z,9.95
2019-05-05T14:17:14.752Z,13.47
2019-05-05T14:19:44.552Z,13.40
2019-05-05T14:22:13.691Z,13.35
2019-05-05T14:24:56.195Z,12.87
2019-05-05T14:27:24.983Z,9.33
2019-05-05T14:30:03.911Z,15.43
2019-05-05T14:32:34.917Z,11.12
2019-05-05T14:35:06.297Z,14.63
2019-05-05T14:37:37.032Z,8.20
2019-05-05T14:40:06.650Z,17.35
2019-05-05T14:42:37.162Z,15.53
2019-05-05T14:45:06.810Z,9.10
2019-05-05T14:47:37.199Z,10.37
2019-05-05T14:50:07.113Z,11.54
2019-05-05T14:52:35.732Z,13.08
2019-05-05T14:55:08.344Z,9.70
2019-05-05T14:57:36.853Z,10.00
2019-05-05T15:00:13.667Z,15.35
2019-05-05T15:02:43.870Z,12.43
2019-05-05T15:05:30.830Z,7.53
2019-05-05T15:08:07.143Z,13.15
2019-05-05T15:10:48.097Z,12.80
2019-05-05T15:13:17.107Z,9.38
2019-05-05T15:15:45.890Z,17.17
2019-05-05T15:18:14.694Z,14.83
2019-05-05T15:20:44.581Z,9.45
2019-05-05T15:23:13.499Z,12.23
2019-05-05T15:25:42.044Z,15.85
2019-05-05T15:28:11.232Z,11.80
2019-05-05T15:30:40.324Z,8.38
2019-05-05T15:33:08.915Z,10.10
2019-05-05T15:35:37.499Z,10.75
2019-05-05T15:38:06.818Z,10.25
2019-05-05T15:40:36.106Z,10.10
2019-05-05T15:43:06.027Z,7.67
2019-05-05T15:45:34.713Z,10.45
2019-05-05T15:48:04.593Z,10.68
2019-05-05T15:50:33.999Z,13.03
2019-05-05T15:53:03.812Z,10.88
2019-05-05T15:55:33.962Z,7.27
2019-05-05T15:58:03.660Z,6.28
2019-05-05T16:00:36.417Z,9.90
2019-05-05T16:03:07.383Z,6.86
2019-05-05T16:05:36.175Z,11.80
2019-05-05T16:08:06.739Z,9.82
2019-05-05T16:10:36.793Z,8.18
2019-05-05T16:13:06.925Z,7.04
2019-05-05T16:15:37.744Z,11.75
2019-05-05T16:18:23.141Z,10.23
2019-05-05T16:20:54.643Z,7.35
2019-05-05T16:23:28.171Z,8.70
2019-05-05T16:25:56.980Z,8.28
2019-05-05T16:28:25.442Z,9.03
2019-05-05T16:30:56.086Z,8.03
2019-05-05T16:33:24.565Z,9.13
2019-05-05T16:35:53.559Z,11.90
2019-05-05T16:38:24.032Z,9.48
2019-05-05T16:40:53.805Z,9.08
2019-05-05T16:43:24.699Z,11.28
2019-05-05T16:45:53.836Z,5.20
2019-05-05T16:48:25.599Z,8.50
2019-05-05T16:50:54.971Z,12.88
2019-05-05T16:53:36.975Z,11.17
2019-05-05T16:56:08.723Z,11.80
2019-05-05T16:58:37.608Z,8.93
2019-05-05T17:01:08.358Z,10.38
2019-05-05T17:03:38.567Z,14.27
2019-05-05T17:06:08.879Z,9.18
2019-05-05T17:08:38.938Z,8.50
2019-05-05T17:11:09.325Z,9.33
2019-05-05T17:13:49.088Z,6.33
2019-05-05T17:16:38.249Z,10.05
2019-05-05T17:19:14.391Z,10.58
2019-05-05T17:22:03.916Z,7.47
2019-05-05T17:24:32.156Z,4.60
2019-05-05T17:27:03.494Z,10.10
2019-05-05T17:29:31.554Z,9.80
2019-05-05T17:32:01.270Z,13.97
2019-05-05T17:34:30.971Z,7.00
2019-05-05T17:36:59.548Z,9.08
2019-05-05T17:39:29.668Z,11.18
2019-05-05T17:42:05.928Z,7.00
2019-05-05T17:44:36.360Z,6.42
2019-05-05T17:47:24.453Z,5.74
2019-05-05T17:49:55.227Z,8.80
2019-05-05T17:52:25.457Z,13.40
2019-05-05T17:54:55.164Z,7.10
2019-05-05T17:57:23.758Z,10.63
2019-05-05T17:59:53.608Z,9.85
2019-05-05T18:02:23.649Z,7.55
2019-05-05T18:04:54.118Z,11.28
2019-05-05T18:07:24.208Z,9.37
2019-05-05T18:09:57.832Z,13.35
2019-05-05T18:12:28.564Z,11.73
2019-05-05T18:15:02.046Z,14.37
2019-05-05T18:17:30.932Z,12.37
2019-05-05T18:19:59.514Z,14.20
2019-05-05T18:22:28.608Z,11.73
2019-05-05T18:24:57.804Z,13.40
2019-05-05T18:27:26.735Z,11.60
2019-05-05T18:29:55.580Z,11.13
2019-05-05T18:32:24.471Z,7.33
2019-05-05T18:34:54.556Z,13.73
2019-05-05T18:37:24.296Z,16.43
2019-05-05T18:39:54.599Z,10.88
2019-05-05T18:42:25.151Z,13.57
2019-05-05T18:44:58.668Z,12.67
2019-05-05T18:47:27.532Z,11.60
2019-05-05T18:49:56.236Z,14.43
2019-05-05T18:52:25.008Z,12.33
2019-05-05T18:54:54.617Z,9.70
2019-05-05T18:57:24.697Z,14.60
2019-05-05T18:59:54.451Z,14.07
2019-05-05T19:02:30.705Z,14.80
2019-05-05T19:05:09.935Z,14.20
2019-05-05T19:07:54.856Z,11.20
2019-05-05T19:10:13.955Z,11.53
2019-05-05T19:12:44.278Z,18.17
2019-05-05T19:15:13.899Z,15.63
2019-05-05T19:17:43.204Z,9.88
2019-05-05T19:20:24.197Z,13.75
2019-05-05T19:22:54.644Z,14.40
2019-05-05T19:25:24.192Z,15.00
2019-05-05T19:27:55.916Z,41.15
2019-05-05T19:30:25.680Z,30.50
2019-05-05T19:32:57.148Z,21.07
2019-05-05T19:35:40.144Z,19.80
2019-05-05T19:37:58.484Z,15.17
2019-05-05T19:40:27.051Z,13.85
2019-05-05T19:42:56.528Z,13.38
2019-05-05T19:45:26.811Z,22.47
2019-05-05T19:47:55.737Z,17.80
2019-05-05T19:50:26.106Z,30.85
2019-05-05T19:52:54.674Z,20.48
2019-05-05T19:55:23.252Z,23.00
2019-05-05T19:57:53.925Z,19.10
2019-05-05T20:00:31.495Z,16.97
2019-05-05T20:03:04.533Z,16.40
2019-05-05T20:05:30.386Z,19.30
2019-05-05T20:07:58.963Z,18.50
2019-05-05T20:10:27.958Z,14.00
2019-05-05T20:12:58.168Z,15.30
2019-05-05T20:15:33.711Z,14.40
2019-05-05T20:18:04.523Z,18.27
2019-05-05T20:20:33.623Z,14.23
2019-05-05T20:23:04.204Z,17.05
2019-05-05T20:25:34.026Z,14.63
2019-05-05T20:28:04.230Z,16.48
2019-05-05T20:30:35.367Z,17.07
2019-05-05T20:33:13.637Z,22.05
2019-05-05T20:35:46.450Z,19.33
2019-05-05T20:38:23.836Z,20.08
2019-05-05T20:40:57.656Z,22.77
2019-05-05T20:43:29.077Z,26.30
2019-05-05T20:45:58.173Z,27.48
2019-05-05T20:48:27.093Z,21.17
2019-05-05T20:50:55.952Z,20.03
2019-05-05T20:53:25.172Z,21.40
2019-05-05T20:55:54.623Z,19.57
2019-05-05T20:58:24.968Z,28.10
2019-05-05T21:00:54.923Z,29.65
2019-05-05T21:03:24.106Z,32.40
2019-05-05T21:05:53.878Z,34.27
2019-05-05T21:08:23.611Z,29.85
2019-05-05T21:10:53.662Z,24.17
2019-05-05T21:13:23.043Z,20.90
2019-05-05T21:15:53.904Z,21.43
2019-05-05T21:18:23.932Z,23.05
2019-05-05T21:20:54.636Z,25.20
2019-05-05T21:23:26.280Z,21.93
2019-05-05T21:25:59.751Z,17.83
2019-05-05T21:28:28.645Z,23.92
2019-05-05T21:30:58.045Z,21.85
2019-05-05T21:33:26.850Z,19.10
2019-05-05T21:35:56.273Z,24.67
2019-05-05T21:38:25.250Z,28.05
2019-05-05T21:40:54.850Z,27.73
2019-05-05T21:43:23.823Z,34.30
2019-05-05T21:45:53.750Z,25.08
2019-05-05T21:48:24.227Z,27.90
2019-05-05T21:50:54.395Z,31.27
2019-05-05T21:53:40.049Z,27.33
2019-05-05T21:56:26.489Z,28.60
2019-05-05T22:01:27.366Z,20.77
2019-05-05T22:03:55.415Z,23.73
2019-05-05T22:06:24.256Z,24.83
2019-05-05T22:08:53.878Z,21.62
2019-05-05T22:11:24.299Z,20.80
2019-05-05T22:13:54.078Z,23.13
2019-05-05T22:16:22.918Z,24.60
2019-05-05T22:18:53.966Z,30.50
2019-05-05T22:21:35.714Z,26.60
2019-05-05T22:24:15.769Z,49.73
2019-05-05T22:26:44.776Z,38.15
2019-05-05T22:29:14.142Z,42.90
2019-05-05T22:31:44.399Z,39.48
2019-05-05T22:34:14.603Z,37.47
2019-05-05T22:36:44.884Z,42.27
2019-05-05T22:39:16.380Z,45.57
2019-05-05T22:41:44.683Z,56.70
2019-05-05T22:44:14.119Z,55.55
2019-05-05T22:46:43.278Z,47.80
2019-05-05T22:49:11.943Z,47.53
2019-05-05T22:51:40.835Z,49.07
2019-05-05T22:54:09.416Z,43.83
2019-05-05T22:56:38.616Z,40.70
2019-05-05T22:59:07.510Z,37.10
2019-05-05T23:01:37.832Z,36.23
2019-05-05T23:04:20.236Z,28.10
2019-05-05T23:06:54.224Z,24.52
2019-05-05T23:09:23.031Z,26.90
2019-05-05T23:11:51.612Z,31.07
2019-05-05T23:14:30.431Z,39.15
2019-05-05T23:17:13.985Z,38.03
2019-05-05T23:19:47.157Z,41.47
2019-05-05T23:22:20.349Z,40.10
2019-05-05T23:24:56.608Z,37.97
2019-05-05T23:27:44.026Z,38.05
2019-05-05T23:30:15.698Z,35.88
2019-05-05T23:32:44.472Z,33.47
2019-05-05T23:35:14.252Z,34.27
2019-05-05T23:37:44.861Z,33.10
2019-05-05T23:40:15.037Z,30.88
2019-05-05T23:42:44.024Z,38.63
2019-05-05T23:45:13.828Z,35.35
2019-05-05T23:47:44.791Z,35.23
2019-05-05T23:50:13.783Z,32.93
2019-05-05T23:52:44.367Z,40.50
2019-05-05T23:55:14.319Z,34.63
2019-05-05T23:57:44.733Z,29.30
